createdAt,value
2022-08-22T00:00:59.445Z,20.61
2022-08-22T00:02:46.942Z,20.62
2022-08-22T00:03:15.561Z,20.47
2022-08-22T00:03:41.626Z,20.58
2022-08-22T00:06:16.207Z,20.61
2022-08-22T00:08:56.912Z,20.61
2022-08-22T00:11:34.826Z,20.61
2022-08-22T00:14:11.859Z,20.60
2022-08-22T00:16:51.367Z,20.61
2022-08-22T00:19:30.547Z,20.61
2022-08-22T00:22:05.864Z,20.61
2022-08-22T00:24:43.163Z,20.63
2022-08-22T00:27:16.837Z,20.65
2022-08-22T00:29:52.447Z,20.64
2022-08-22T00:32:28.807Z,20.63
2022-08-22T00:35:03.240Z,20.64
2022-08-22T00:37:36.927Z,20.63
2022-08-22T00:40:18.660Z,20.60
2022-08-22T00:43:12.407Z,20.56
2022-08-22T00:46:08.897Z,20.50
2022-08-22T00:48:58.301Z,20.47
2022-08-22T00:51:46.173Z,20.44
2022-08-22T00:54:25.820Z,20.44
2022-08-22T00:57:14.856Z,20.42
2022-08-22T01:00:07.002Z,20.36
2022-08-22T01:02:52.705Z,20.37
2022-08-22T01:05:44.610Z,20.32
2022-08-22T01:08:33.946Z,20.27
2022-08-22T01:11:13.190Z,20.22
2022-08-22T01:13:58.824Z,20.25
2022-08-22T01:16:44.083Z,20.24
2022-08-22T01:20:00.566Z,20.12
2022-08-22T01:22:57.909Z,20.09
2022-08-22T01:26:09.895Z,20.08
2022-08-22T01:29:17.510Z,20.02
2022-08-22T01:32:24.628Z,20.07
2022-08-22T01:35:37.733Z,20.05
2022-08-22T01:38:34.982Z,20.00
2022-08-22T01:41:30.458Z,20.08
2022-08-22T01:44:25.234Z,20.04
2022-08-22T01:47:02.278Z,20.06
2022-08-22T01:49:44.217Z,20.05
2022-08-22T01:52:20.752Z,20.00
2022-08-22T01:54:56.028Z,19.98
2022-08-22T01:57:26.056Z,19.97
2022-08-22T01:59:58.636Z,19.94
2022-08-22T02:02:46.474Z,19.86
2022-08-22T02:05:27.833Z,19.92
2022-08-22T02:08:03.613Z,19.91
2022-08-22T02:10:56.331Z,19.91
2022-08-22T02:13:36.041Z,19.92
2022-08-22T02:16:12.572Z,19.94
2022-08-22T02:18:55.939Z,19.94
2022-08-22T02:21:32.570Z,19.94
2022-08-22T02:24:15.798Z,19.94
2022-08-22T02:26:51.457Z,19.94
2022-08-22T02:29:30.818Z,19.97
2022-08-22T02:32:04.253Z,19.99
2022-08-22T02:34:41.888Z,19.97
2022-08-22T02:37:16.934Z,19.99
2022-08-22T02:39:57.443Z,19.97
2022-08-22T02:42:31.221Z,20.00
2022-08-22T02:45:07.104Z,19.99
2022-08-22T02:47:46.752Z,19.98
2022-08-22T02:50:24.824Z,19.98
2022-08-22T02:52:59.105Z,19.97
2022-08-22T02:55:47.441Z,19.98
2022-08-22T02:58:24.636Z,19.99
2022-08-22T03:01:15.151Z,19.99
2022-08-22T03:03:47.527Z,20.02
2022-08-22T03:06:33.144Z,20.00
2022-08-22T03:09:08.968Z,20.01
2022-08-22T03:11:43.013Z,19.99
2022-08-22T03:14:19.465Z,20.01
2022-08-22T03:16:56.490Z,20.03
2022-08-22T03:19:42.571Z,20.05
2022-08-22T03:22:16.950Z,20.04
2022-08-22T03:24:53.518Z,20.05
2022-08-22T03:27:32.444Z,20.06
2022-08-22T03:30:07.881Z,20.09
2022-08-22T03:32:52.872Z,20.07
2022-08-22T03:35:30.739Z,20.04
2022-08-22T03:38:19.931Z,19.96
2022-08-22T03:41:01.561Z,19.97
2022-08-22T03:43:52.891Z,19.95
2022-08-22T03:46:53.874Z,19.93
2022-08-22T03:50:06.110Z,19.94
2022-08-22T03:53:19.319Z,19.89
2022-08-22T03:56:29.593Z,19.92
2022-08-22T03:59:26.719Z,19.88
2022-08-22T04:02:43.025Z,19.84
2022-08-22T04:05:56.542Z,19.77
2022-08-22T04:08:53.499Z,19.78
2022-08-22T04:11:47.178Z,19.72
2022-08-22T04:14:40.844Z,19.73
2022-08-22T04:17:49.900Z,19.71
2022-08-22T04:20:42.300Z,19.72
2022-08-22T04:23:34.605Z,19.67
2022-08-22T04:26:12.721Z,19.68
2022-08-22T04:28:49.174Z,19.71
2022-08-22T04:31:27.981Z,19.76
2022-08-22T04:34:02.555Z,19.77
2022-08-22T04:36:36.138Z,19.75
2022-08-22T04:39:10.909Z,19.72
2022-08-22T04:41:48.371Z,19.61
2022-08-22T04:44:23.486Z,19.63
2022-08-22T04:47:00.805Z,19.66
2022-08-22T04:49:36.782Z,19.66
2022-08-22T04:52:12.957Z,19.69
2022-08-22T04:54:57.012Z,19.70
2022-08-22T04:57:32.688Z,19.70
2022-08-22T05:00:02.658Z,19.70
2022-08-22T05:02:32.456Z,19.70
2022-08-22T05:05:04.956Z,19.69
2022-08-22T05:07:46.363Z,19.66
2022-08-22T05:10:21.136Z,19.68
2022-08-22T05:12:55.637Z,19.70
2022-08-22T05:15:27.450Z,19.73
2022-08-22T05:18:02.227Z,19.71
2022-08-22T05:20:31.621Z,19.74
2022-08-22T05:23:17.529Z,19.77
2022-08-22T05:25:50.762Z,19.76
2022-08-22T05:28:34.915Z,19.72
2022-08-22T05:31:08.149Z,19.72
2022-08-22T05:33:42.345Z,19.70
2022-08-22T05:36:14.210Z,19.69
2022-08-22T05:38:48.479Z,19.63
2022-08-22T05:41:20.703Z,19.65
2022-08-22T05:43:49.662Z,19.48
2022-08-22T05:46:22.038Z,19.59
2022-08-22T05:49:00.460Z,19.62
2022-08-22T05:51:38.126Z,19.62
2022-08-22T05:54:17.490Z,19.69
2022-08-22T05:56:50.499Z,19.81
2022-08-22T05:59:25.983Z,19.88
2022-08-22T06:02:06.593Z,20.10
2022-08-22T06:04:47.299Z,20.22
2022-08-22T06:07:20.263Z,20.26
2022-08-22T06:10:20.534Z,20.15
2022-08-22T06:12:58.272Z,20.14
2022-08-22T06:15:35.607Z,20.14
2022-08-22T06:18:10.438Z,20.13
2022-08-22T06:20:45.257Z,20.19
2022-08-22T06:23:18.408Z,20.33
2022-08-22T06:25:48.973Z,20.40
2022-08-22T06:28:26.702Z,20.39
2022-08-22T06:30:57.750Z,20.33
2022-08-22T06:33:28.914Z,20.25
2022-08-22T06:36:21.109Z,20.17
2022-08-22T06:38:58.842Z,20.10
2022-08-22T06:41:31.728Z,20.10
2022-08-22T06:44:01.613Z,20.09
2022-08-22T06:46:33.265Z,20.09
2022-08-22T06:49:04.524Z,20.04
2022-08-22T06:51:37.555Z,20.01
2022-08-22T06:54:10.225Z,19.95
2022-08-22T06:56:43.347Z,19.95
2022-08-22T06:59:16.433Z,19.89
2022-08-22T07:01:52.259Z,19.82
2022-08-22T07:04:26.646Z,19.78
2022-08-22T07:06:58.308Z,19.83
2022-08-22T07:09:29.577Z,19.89
2022-08-22T07:12:02.249Z,19.96
2022-08-22T07:14:33.844Z,20.02
2022-08-22T07:17:04.906Z,20.12
2022-08-22T07:19:38.091Z,20.21
2022-08-22T07:22:15.657Z,20.27
2022-08-22T07:24:51.703Z,20.29
2022-08-22T07:27:32.331Z,20.29
2022-08-22T07:30:10.063Z,20.32
2022-08-22T07:32:47.450Z,20.45
2022-08-22T07:35:20.098Z,20.49
2022-08-22T07:38:00.166Z,20.48
2022-08-22T07:40:35.139Z,20.53
2022-08-22T07:43:13.505Z,20.54
2022-08-22T07:45:50.997Z,20.58
2022-08-22T07:48:26.210Z,20.61
2022-08-22T07:51:08.464Z,20.65
2022-08-22T07:53:42.779Z,20.70
2022-08-22T07:56:16.665Z,20.67
2022-08-22T07:58:49.111Z,20.60
2022-08-22T08:01:21.948Z,20.56
2022-08-22T08:03:55.212Z,20.54
2022-08-22T08:06:24.871Z,20.49
2022-08-22T08:08:56.519Z,20.52
2022-08-22T08:11:28.185Z,20.58
2022-08-22T08:14:04.281Z,20.69
2022-08-22T08:16:41.244Z,20.73
2022-08-22T08:19:12.194Z,20.68
2022-08-22T08:21:49.435Z,20.67
2022-08-22T08:24:24.893Z,20.80
2022-08-22T08:27:13.927Z,20.99
2022-08-22T08:29:46.779Z,21.20
2022-08-22T08:32:15.691Z,21.28
2022-08-22T08:34:45.325Z,21.26
2022-08-22T08:37:22.609Z,21.17
2022-08-22T08:39:57.138Z,21.04
2022-08-22T08:43:12.976Z,21.02
2022-08-22T08:45:59.332Z,21.00
2022-08-22T08:49:06.491Z,21.01
2022-08-22T08:52:02.351Z,20.94
2022-08-22T08:54:59.538Z,20.90
2022-08-22T08:57:50.646Z,20.89
2022-08-22T09:00:28.994Z,20.87
2022-08-22T09:03:09.392Z,20.84
2022-08-22T09:06:08.837Z,20.92
2022-08-22T09:09:04.908Z,21.06
2022-08-22T09:12:16.597Z,21.02
2022-08-22T09:15:11.929Z,20.97
2022-08-22T09:18:26.941Z,20.86
2022-08-22T09:21:39.489Z,20.80
2022-08-22T09:24:30.055Z,20.88
2022-08-22T09:27:03.000Z,21.02
2022-08-22T09:29:54.598Z,21.06
2022-08-22T09:32:36.143Z,21.08
2022-08-22T09:35:12.520Z,21.03
2022-08-22T09:37:59.113Z,21.06
2022-08-22T09:40:36.535Z,21.13
2022-08-22T09:43:11.077Z,21.12
2022-08-22T09:45:47.401Z,21.14
2022-08-22T09:48:35.718Z,21.18
2022-08-22T09:51:31.803Z,21.25
2022-08-22T09:54:14.719Z,21.23
2022-08-22T09:56:55.766Z,21.23
2022-08-22T09:59:42.652Z,21.38
2022-08-22T10:02:26.928Z,21.57
2022-08-22T10:05:07.697Z,21.73
2022-08-22T10:07:52.890Z,21.86
2022-08-22T10:10:46.424Z,21.94
2022-08-22T10:13:26.577Z,22.03
2022-08-22T10:16:05.743Z,22.08
2022-08-22T10:18:44.072Z,22.15
2022-08-22T10:21:32.062Z,22.20
2022-08-22T10:24:11.830Z,22.10
2022-08-22T10:26:47.602Z,22.07
2022-08-22T10:29:52.012Z,22.02
2022-08-22T10:32:31.816Z,22.06
2022-08-22T10:35:08.359Z,22.06
2022-08-22T10:37:46.163Z,22.06
2022-08-22T10:40:21.419Z,21.99
2022-08-22T10:42:54.850Z,22.02
2022-08-22T10:45:36.814Z,22.08
2022-08-22T10:48:32.624Z,22.09
2022-08-22T10:51:12.075Z,22.20
2022-08-22T10:53:57.043Z,22.26
2022-08-22T10:56:30.685Z,22.32
2022-08-22T10:59:07.023Z,22.35
2022-08-22T11:01:57.206Z,22.32
2022-08-22T11:04:45.016Z,22.33
2022-08-22T11:07:39.432Z,22.29
2022-08-22T11:10:22.443Z,22.29
2022-08-22T11:13:06.051Z,22.24
2022-08-22T11:16:06.803Z,22.28
2022-08-22T11:19:15.371Z,22.30
2022-08-22T11:22:10.223Z,22.25
2022-08-22T11:25:05.020Z,22.28
2022-08-22T11:27:45.599Z,22.31
2022-08-22T11:30:18.775Z,22.32
2022-08-22T11:33:16.177Z,22.40
2022-08-22T11:35:51.643Z,22.52
2022-08-22T11:38:32.664Z,22.62
2022-08-22T11:41:06.685Z,22.82
2022-08-22T11:43:52.643Z,22.99
2022-08-22T11:46:25.901Z,23.06
2022-08-22T11:49:06.414Z,23.10
2022-08-22T11:51:57.607Z,23.08
2022-08-22T11:54:42.292Z,23.07
2022-08-22T11:57:15.822Z,23.14
2022-08-22T12:00:05.833Z,23.20
2022-08-22T12:02:47.603Z,23.31
2022-08-22T12:05:26.142Z,23.30
2022-08-22T12:08:03.360Z,23.40
2022-08-22T12:10:37.144Z,23.41
2022-08-22T12:13:09.759Z,23.42
2022-08-22T12:15:48.994Z,23.45
2022-08-22T12:18:38.974Z,23.61
2022-08-22T12:21:44.782Z,23.82
2022-08-22T12:24:36.720Z,23.93
2022-08-22T12:27:40.572Z,23.87
2022-08-22T12:30:23.491Z,23.81
2022-08-22T12:33:22.046Z,23.75
2022-08-22T12:36:01.113Z,23.52
2022-08-22T12:38:50.193Z,23.44
2022-08-22T12:41:46.619Z,23.49
2022-08-22T12:44:37.594Z,23.50
2022-08-22T12:47:25.645Z,23.46
2022-08-22T12:50:15.850Z,23.52
2022-08-22T12:53:03.478Z,23.45
2022-08-22T12:56:03.348Z,23.34
2022-08-22T12:58:51.356Z,23.45
2022-08-22T13:01:23.418Z,23.47
2022-08-22T13:04:12.833Z,23.49
2022-08-22T13:07:11.345Z,23.45
2022-08-22T13:09:43.274Z,23.45
2022-08-22T13:12:24.581Z,23.40
2022-08-22T13:14:56.785Z,23.37
2022-08-22T13:17:26.336Z,23.41
2022-08-22T13:20:03.072Z,23.25
2022-08-22T13:22:36.140Z,23.14
2022-08-22T13:25:09.889Z,23.15
2022-08-22T13:27:51.067Z,23.11
2022-08-22T13:30:22.450Z,23.13
2022-08-22T13:32:54.584Z,23.12
2022-08-22T13:35:32.530Z,23.07
2022-08-22T13:38:08.061Z,22.99
2022-08-22T13:40:45.412Z,22.96
2022-08-22T13:43:21.836Z,22.90
2022-08-22T13:45:55.793Z,22.90
2022-08-22T13:48:28.895Z,22.98
2022-08-22T13:51:05.799Z,22.98
2022-08-22T13:53:45.217Z,23.01
2022-08-22T13:56:21.834Z,23.09
2022-08-22T13:58:54.972Z,23.11
2022-08-22T14:01:35.343Z,23.09
2022-08-22T14:04:17.745Z,23.16
2022-08-22T14:07:23.785Z,23.19
2022-08-22T14:09:57.695Z,23.24
2022-08-22T14:12:33.535Z,23.27
2022-08-22T14:15:23.707Z,23.37
2022-08-22T14:18:03.411Z,23.46
2022-08-22T14:20:33.943Z,23.48
2022-08-22T14:23:08.961Z,23.56
2022-08-22T14:25:39.198Z,23.68
2022-08-22T14:28:11.142Z,23.77
2022-08-22T14:30:56.487Z,23.79
2022-08-22T14:33:33.199Z,24.17
2022-08-22T14:36:05.772Z,24.26
2022-08-22T14:38:46.388Z,24.46
2022-08-22T14:41:52.488Z,24.60
2022-08-22T14:44:23.607Z,24.71
2022-08-22T14:46:56.741Z,24.85
2022-08-22T14:49:30.193Z,24.92
2022-08-22T14:52:04.001Z,24.86
2022-08-22T14:54:35.083Z,24.68
2022-08-22T14:57:12.720Z,24.60
2022-08-22T14:59:52.527Z,24.41
2022-08-22T15:02:27.851Z,24.22
2022-08-22T15:04:57.425Z,24.04
2022-08-22T15:07:29.714Z,23.94
2022-08-22T15:10:06.154Z,23.81
2022-08-22T15:12:38.762Z,23.70
2022-08-22T15:15:13.913Z,23.53
2022-08-22T15:17:44.817Z,23.34
2022-08-22T15:20:27.708Z,23.18
2022-08-22T15:23:00.392Z,23.09
2022-08-22T15:25:34.281Z,23.06
2022-08-22T15:28:13.937Z,22.97
2022-08-22T15:30:48.475Z,22.95
2022-08-22T15:33:26.288Z,22.93
2022-08-22T15:36:12.278Z,22.83
2022-08-22T15:38:48.419Z,22.98
2022-08-22T15:41:45.084Z,23.07
2022-08-22T15:44:32.463Z,23.17
2022-08-22T15:47:28.480Z,23.16
2022-08-22T15:50:05.260Z,23.18
2022-08-22T15:52:59.806Z,23.20
2022-08-22T15:55:34.422Z,23.29
2022-08-22T15:58:08.179Z,23.38
2022-08-22T16:00:43.358Z,23.31
2022-08-22T16:03:15.940Z,23.26
2022-08-22T16:05:55.451Z,23.22
2022-08-22T16:08:28.450Z,23.19
2022-08-22T16:11:21.108Z,23.11
2022-08-22T16:14:22.528Z,23.06
2022-08-22T16:17:04.034Z,23.03
2022-08-22T16:19:35.661Z,22.99
2022-08-22T16:22:10.407Z,22.97
2022-08-22T16:25:05.813Z,22.88
2022-08-22T16:27:35.789Z,22.83
2022-08-22T16:30:15.942Z,22.73
2022-08-22T16:32:56.520Z,22.69
2022-08-22T16:36:16.787Z,22.75
2022-08-22T16:38:47.909Z,22.77
2022-08-22T16:41:29.274Z,22.73
2022-08-22T16:44:39.813Z,22.59
2022-08-22T16:47:14.037Z,22.56
2022-08-22T16:49:57.514Z,22.56
2022-08-22T16:53:02.392Z,22.59
2022-08-22T16:55:46.622Z,22.54
2022-08-22T16:58:50.187Z,22.51
2022-08-22T17:01:32.282Z,22.42
2022-08-22T17:04:11.361Z,22.43
2022-08-22T17:07:02.139Z,22.48
2022-08-22T17:09:56.348Z,22.49
2022-08-22T17:12:41.708Z,22.46
2022-08-22T17:15:22.576Z,22.43
2022-08-22T17:18:14.716Z,22.47
2022-08-22T17:20:49.065Z,22.49
2022-08-22T17:23:30.545Z,22.50
2022-08-22T17:26:08.994Z,22.53
2022-08-22T17:28:42.917Z,22.52
2022-08-22T17:31:18.335Z,22.47
2022-08-22T17:34:19.583Z,22.35
2022-08-22T17:36:59.207Z,22.37
2022-08-22T17:39:56.039Z,22.36
2022-08-22T17:42:44.945Z,22.35
2022-08-22T17:45:43.227Z,22.35
2022-08-22T17:48:33.905Z,22.36
2022-08-22T17:51:15.228Z,22.32
2022-08-22T17:54:16.720Z,22.22
2022-08-22T17:57:03.257Z,22.21
2022-08-22T17:59:41.036Z,22.20
2022-08-22T18:02:16.458Z,22.21
2022-08-22T18:04:52.385Z,22.19
2022-08-22T18:07:34.756Z,22.18
2022-08-22T18:10:08.344Z,22.01
2022-08-22T18:12:45.844Z,22.12
2022-08-22T18:15:24.267Z,22.10
2022-08-22T18:17:58.002Z,22.06
2022-08-22T18:20:32.516Z,22.07
2022-08-22T18:23:21.657Z,22.06
2022-08-22T18:26:15.908Z,22.03
2022-08-22T18:28:50.014Z,22.05
2022-08-22T18:31:37.753Z,21.96
2022-08-22T18:34:17.060Z,21.93
2022-08-22T18:36:55.344Z,21.88
2022-08-22T18:39:29.072Z,21.85
2022-08-22T18:42:08.134Z,21.84
2022-08-22T18:44:40.246Z,21.81
2022-08-22T18:47:13.464Z,21.62
2022-08-22T18:49:55.228Z,21.69
2022-08-22T18:52:36.467Z,21.59
2022-08-22T18:55:28.154Z,21.51
2022-08-22T18:58:22.591Z,21.54
2022-08-22T19:01:16.537Z,21.49
2022-08-22T19:04:18.178Z,21.45
2022-08-22T19:07:06.651Z,21.44
2022-08-22T19:10:06.297Z,21.42
2022-08-22T19:12:55.823Z,21.42
2022-08-22T19:15:39.191Z,21.39
2022-08-22T19:18:34.555Z,21.33
2022-08-22T19:21:44.173Z,21.36
2022-08-22T19:24:29.827Z,21.41
2022-08-22T19:27:31.284Z,21.39
2022-08-22T19:30:03.261Z,21.38
2022-08-22T19:33:03.547Z,21.34
2022-08-22T19:35:43.276Z,21.35
2022-08-22T19:38:12.602Z,21.38
2022-08-22T19:40:53.519Z,21.38
2022-08-22T19:43:29.576Z,21.33
2022-08-22T19:46:00.055Z,21.38
2022-08-22T19:48:33.195Z,21.42
2022-08-22T19:51:24.756Z,21.41
2022-08-22T19:54:08.043Z,21.36
2022-08-22T19:56:51.159Z,21.34
2022-08-22T19:59:31.297Z,21.31
2022-08-22T20:02:07.354Z,21.38
2022-08-22T20:05:05.584Z,21.36
2022-08-22T20:07:47.079Z,21.40
2022-08-22T20:10:24.636Z,21.38
2022-08-22T20:13:05.576Z,21.37
2022-08-22T20:16:03.772Z,21.33
2022-08-22T20:19:24.115Z,21.29
2022-08-22T20:22:10.865Z,21.33
2022-08-22T20:25:03.110Z,21.33
2022-08-22T20:27:49.950Z,21.34
2022-08-22T20:30:45.100Z,21.32
2022-08-22T20:33:26.217Z,21.33
2022-08-22T20:35:59.183Z,21.32
2022-08-22T20:38:35.741Z,21.31
2022-08-22T20:41:16.153Z,21.29
2022-08-22T20:43:51.608Z,21.27
2022-08-22T20:46:43.872Z,21.20
2022-08-22T20:49:18.926Z,21.18
2022-08-22T20:52:05.566Z,21.14
2022-08-22T20:54:56.039Z,21.16
2022-08-22T20:57:46.618Z,21.05
2022-08-22T21:00:39.075Z,21.06
2022-08-22T21:03:33.764Z,21.05
2022-08-22T21:06:26.038Z,21.10
2022-08-22T21:09:39.046Z,21.08
2022-08-22T21:12:24.366Z,21.05
2022-08-22T21:15:13.892Z,21.03
2022-08-22T21:18:11.904Z,21.06
2022-08-22T21:21:01.134Z,21.04
2022-08-22T21:23:43.480Z,21.06
2022-08-22T21:26:35.034Z,21.04
2022-08-22T21:29:33.960Z,21.02
2022-08-22T21:32:33.998Z,20.98
2022-08-22T21:35:32.307Z,21.00
2022-08-22T21:38:25.004Z,21.01
2022-08-22T21:41:10.219Z,21.07
2022-08-22T21:43:57.996Z,21.08
2022-08-22T21:46:41.194Z,21.08
2022-08-22T21:49:32.002Z,21.04
2022-08-22T21:52:13.213Z,21.01
2022-08-22T21:55:00.977Z,21.02
2022-08-22T21:57:50.978Z,21.06
2022-08-22T22:00:58.066Z,21.03
2022-08-22T22:03:44.196Z,21.03
2022-08-22T22:06:32.929Z,20.99
2022-08-22T22:09:20.938Z,21.02
2022-08-22T22:12:09.933Z,21.06
2022-08-22T22:14:53.194Z,21.05
2022-08-22T22:17:48.058Z,21.05
2022-08-22T22:20:38.201Z,21.04
2022-08-22T22:23:20.939Z,21.02
2022-08-22T22:26:18.955Z,21.01
2022-08-22T22:29:09.231Z,21.01
2022-08-22T22:31:51.905Z,20.99
2022-08-22T22:34:39.926Z,21.01
2022-08-22T22:37:23.138Z,21.04
2022-08-22T22:40:14.988Z,21.04
2022-08-22T22:42:56.128Z,21.02
2022-08-22T22:45:45.896Z,21.03
2022-08-22T22:48:34.006Z,20.98
2022-08-22T22:51:16.568Z,20.97
2022-08-22T22:54:05.903Z,20.98
2022-08-22T22:56:54.886Z,20.98
2022-08-22T22:59:30.134Z,20.98
2022-08-22T23:02:07.065Z,20.94
2022-08-22T23:04:38.018Z,20.90
2022-08-22T23:07:07.706Z,20.84
2022-08-22T23:09:52.691Z,20.81
2022-08-22T23:12:35.092Z,20.78
2022-08-22T23:15:22.894Z,20.74
2022-08-22T23:18:17.826Z,20.71
2022-08-22T23:21:17.862Z,20.67
2022-08-22T23:24:08.837Z,20.70
2022-08-22T23:26:58.086Z,20.67
2022-08-22T23:29:39.938Z,20.68
2022-08-22T23:32:28.157Z,20.68
2022-08-22T23:35:09.872Z,20.71
2022-08-22T23:37:51.590Z,20.61
2022-08-22T23:40:39.933Z,20.61
2022-08-22T23:43:29.022Z,20.55
2022-08-22T23:46:04.801Z,20.54
2022-08-22T23:48:33.283Z,20.58
2022-08-22T23:51:01.705Z,20.58
2022-08-22T23:53:29.973Z,20.58
2022-08-22T23:55:59.325Z,20.54
2022-08-22T23:58:29.048Z,20.54
